Alouetteii — V7ON8 — position and weather

sailwx.info

Track history (hours):
 
Tides and Currents Weather Stations Pressure Air Temp Water Temp Dewpoint Dewpoint Depression Visibility Wind Speed Wind Dir Waves Ship Positions

Alouetteii

Last reported at 2016-May-03 00:31 UTC. Time now 2016-May-03 18:15 UTC.
Position N 37°56' E 023°41'.

Length 54 m; draft 3.5 m.

MMSI: 538070488.

Date/timePositionNaut miles runAvg speedWind from/ knotsBaromVisibWave heightAir tempDewpointWater temp
2016-May-03 00:31N 37°56' E 023°41'0 0.0
2016-May-02 23:31N 37°56' E 023°41'0 0.0
2016-May-02 22:33N 37°56' E 023°41'0 0.0
2016-May-02 21:33N 37°56' E 023°41'0 0.0
2016-May-02 19:24N 37°56' E 023°41'0 0.0
2016-May-02 18:27N 37°56' E 023°41'0 0.0
2016-May-02 15:25N 37°56' E 023°41'0 0.0
2016-May-02 14:32N 37°56' E 023°41'0 0.0
2016-May-02 13:32N 37°56' E 023°41'0 0.0
2016-May-02 12:32N 37°56' E 023°41'0 0.0
2016-May-02 11:30N 37°56' E 023°41'0 0.0
2016-May-02 10:32N 37°56' E 023°41'0 0.0
2016-May-02 09:29N 37°56' E 023°41'0 0.0
2016-May-02 08:32N 37°56' E 023°41'0 0.0
2016-May-02 07:32N 37°56' E 023°41'0 0.0
2016-May-02 06:33N 37°56' E 023°41'10 9.9
2016-May-02 05:34N 37°47' E 023°36'1413.6
2016-May-02 04:33N 37°33' E 023°33'1212.3
2016-May-02 03:33N 37°22' E 023°26'15 0.6
2016-May-01 04:30N 37°16' E 023°09'0 0.0
2016-Apr-30 14:06N 37°16' E 023°09'3 2.0
2016-Apr-30 12:31N 37°19' E 023°12'3 0.6
2016-Apr-30 07:25N 37°16' E 023°09'0 0.0
2016-Apr-30 05:31N 37°16' E 023°09'0 0.0
2016-Apr-29 23:19N 37°16' E 023°09'0 0.0
2016-Apr-29 22:26N 37°16' E 023°09'0 0.0
2016-Apr-29 21:25N 37°16' E 023°09'0 0.0
2016-Apr-29 20:10N 37°16' E 023°09'0 0.0
2016-Apr-29 19:31N 37°16' E 023°09'0 0.0
2016-Apr-29 06:24N 37°16' E 023°09'2010.8
2016-Apr-29 04:32N 37°25' E 023°32'1414.0
2016-Apr-29 03:33N 37°39' E 023°34'18 0.7
2016-Apr-28 00:16N 37°56' E 023°41'0 0.0
2016-Apr-27 23:33N 37°56' E 023°41'0 0.0
2016-Apr-27 22:33N 37°56' E 023°41'0 0.0
2016-Apr-27 21:33N 37°56' E 023°41'0 0.0
2016-Apr-27 20:33N 37°56' E 023°41'0 0.0
2016-Apr-27 19:30N 37°56' E 023°41'0 0.0
2016-Apr-27 01:20N 37°56' E 023°41'0 0.0
2016-Apr-27 00:32N 37°56' E 023°41'0 0.0
2016-Apr-26 23:32N 37°56' E 023°41'0 0.0
2016-Apr-26 22:32N 37°56' E 023°41'0 0.0
2016-Apr-26 21:32N 37°56' E 023°41'0 0.0
2016-Apr-26 20:32N 37°56' E 023°41'0 0.0
2016-Apr-26 19:32N 37°56' E 023°41'0 0.0
2016-Apr-26 16:23N 37°56' E 023°41'0 0.0
2016-Apr-26 15:33N 37°56' E 023°41'0 0.0
2016-Apr-26 13:23N 37°56' E 023°41'0 0.0
2016-Apr-26 09:18N 37°56' E 023°41'0 0.0
2016-Apr-26 08:30N 37°56' E 023°41'0 0.0
2016-Apr-26 05:29N 37°56' E 023°41'0 0.0
2016-Apr-26 02:23N 37°56' E 023°41'0 0.0
2016-Apr-26 01:30N 37°56' E 023°41'0 0.0
2016-Apr-26 00:33N 37°56' E 023°41'0 0.0
2016-Apr-25 23:31N 37°56' E 023°41'0 0.0
2016-Apr-25 22:31N 37°56' E 023°41'0 0.0
2016-Apr-25 21:31N 37°56' E 023°41'0 0.0
2016-Apr-25 20:31N 37°56' E 023°41'0 0.0
2016-Apr-25 19:31N 37°56' E 023°41'0 0.0
2016-Apr-25 18:31N 37°56' E 023°41'0 0.0
2016-Apr-25 17:31N 37°56' E 023°41'0 0.0
2016-Apr-25 16:33N 37°56' E 023°41'0 0.0
2016-Apr-25 15:31N 37°56' E 023°41'0 0.0
2016-Apr-25 14:31N 37°56' E 023°41'0 0.0
2016-Apr-25 13:31N 37°56' E 023°41'0 0.0
2016-Apr-25 12:31N 37°56' E 023°41'0 0.0
2016-Apr-25 11:31N 37°56' E 023°41'0 0.0
2016-Apr-25 10:31N 37°56' E 023°41'0 0.0
2016-Apr-25 09:31N 37°56' E 023°41'0 0.0
2016-Apr-25 08:31N 37°56' E 023°41'0 0.0
2016-Apr-25 07:33N 37°56' E 023°41'0 0.0
2016-Apr-25 06:33N 37°56' E 023°41'0 0.0
2016-Apr-23 23:29N 37°56' E 023°41'0 0.0
2016-Apr-23 22:33N 37°56' E 023°41'0 0.0
2016-Apr-23 21:33N 37°56' E 023°41'0 0.0
2016-Apr-23 20:33N 37°56' E 023°41'0 0.0
2016-Apr-23 19:33N 37°56' E 023°41'0 0.0
2016-Apr-23 18:33N 37°56' E 023°41'0 0.0
2016-Apr-23 17:33N 37°56' E 023°41'  
Track history (hours):
 
Tides and Currents Weather Stations Pressure Air Temp Water Temp Dewpoint Dewpoint Depression Visibility Wind Speed Wind Dir Waves Ship Positions

Alouetteii

Last reported at 2016-May-03 00:31 UTC. Time now 2016-May-03 18:15 UTC.
Position N 37°56' E 023°41'.

Length 54 m; draft 3.5 m.

MMSI: 538070488.

Date/timePositionNaut miles runAvg speedWind from/ knotsBaromVisibWave heightAir tempDewpointWater temp
2016-May-03 00:31N 37°56' E 023°41'0 0.0
2016-May-02 23:31N 37°56' E 023°41'0 0.0
2016-May-02 22:33N 37°56' E 023°41'0 0.0
2016-May-02 21:33N 37°56' E 023°41'0 0.0
2016-May-02 19:24N 37°56' E 023°41'0 0.0
2016-May-02 18:27N 37°56' E 023°41'0 0.0
2016-May-02 15:25N 37°56' E 023°41'0 0.0
2016-May-02 14:32N 37°56' E 023°41'0 0.0
2016-May-02 13:32N 37°56' E 023°41'0 0.0
2016-May-02 12:32N 37°56' E 023°41'0 0.0
2016-May-02 11:30N 37°56' E 023°41'0 0.0
2016-May-02 10:32N 37°56' E 023°41'0 0.0
2016-May-02 09:29N 37°56' E 023°41'0 0.0
2016-May-02 08:32N 37°56' E 023°41'0 0.0
2016-May-02 07:32N 37°56' E 023°41'0 0.0
2016-May-02 06:33N 37°56' E 023°41'10 9.9
2016-May-02 05:34N 37°47' E 023°36'1413.6
2016-May-02 04:33N 37°33' E 023°33'1212.3
2016-May-02 03:33N 37°22' E 023°26'15 0.6
2016-May-01 04:30N 37°16' E 023°09'0 0.0
2016-Apr-30 14:06N 37°16' E 023°09'3 2.0
2016-Apr-30 12:31N 37°19' E 023°12'3 0.6
2016-Apr-30 07:25N 37°16' E 023°09'0 0.0
2016-Apr-30 05:31N 37°16' E 023°09'0 0.0
2016-Apr-29 23:19N 37°16' E 023°09'0 0.0
2016-Apr-29 22:26N 37°16' E 023°09'0 0.0
2016-Apr-29 21:25N 37°16' E 023°09'0 0.0
2016-Apr-29 20:10N 37°16' E 023°09'0 0.0
2016-Apr-29 19:31N 37°16' E 023°09'0 0.0
2016-Apr-29 06:24N 37°16' E 023°09'2010.8
2016-Apr-29 04:32N 37°25' E 023°32'1414.0
2016-Apr-29 03:33N 37°39' E 023°34'18 0.7
2016-Apr-28 00:16N 37°56' E 023°41'0 0.0
2016-Apr-27 23:33N 37°56' E 023°41'0 0.0
2016-Apr-27 22:33N 37°56' E 023°41'0 0.0
2016-Apr-27 21:33N 37°56' E 023°41'0 0.0
2016-Apr-27 20:33N 37°56' E 023°41'0 0.0
2016-Apr-27 19:30N 37°56' E 023°41'0 0.0
2016-Apr-27 01:20N 37°56' E 023°41'0 0.0
2016-Apr-27 00:32N 37°56' E 023°41'0 0.0
2016-Apr-26 23:32N 37°56' E 023°41'0 0.0
2016-Apr-26 22:32N 37°56' E 023°41'0 0.0
2016-Apr-26 21:32N 37°56' E 023°41'0 0.0
2016-Apr-26 20:32N 37°56' E 023°41'0 0.0
2016-Apr-26 19:32N 37°56' E 023°41'0 0.0
2016-Apr-26 16:23N 37°56' E 023°41'0 0.0
2016-Apr-26 15:33N 37°56' E 023°41'0 0.0
2016-Apr-26 13:23N 37°56' E 023°41'0 0.0
2016-Apr-26 09:18N 37°56' E 023°41'0 0.0
2016-Apr-26 08:30N 37°56' E 023°41'0 0.0
2016-Apr-26 05:29N 37°56' E 023°41'0 0.0
2016-Apr-26 02:23N 37°56' E 023°41'0 0.0
2016-Apr-26 01:30N 37°56' E 023°41'0 0.0
2016-Apr-26 00:33N 37°56' E 023°41'0 0.0
2016-Apr-25 23:31N 37°56' E 023°41'0 0.0
2016-Apr-25 22:31N 37°56' E 023°41'0 0.0
2016-Apr-25 21:31N 37°56' E 023°41'0 0.0
2016-Apr-25 20:31N 37°56' E 023°41'0 0.0
2016-Apr-25 19:31N 37°56' E 023°41'0 0.0
2016-Apr-25 18:31N 37°56' E 023°41'0 0.0
2016-Apr-25 17:31N 37°56' E 023°41'0 0.0
2016-Apr-25 16:33N 37°56' E 023°41'0 0.0
2016-Apr-25 15:31N 37°56' E 023°41'0 0.0
2016-Apr-25 14:31N 37°56' E 023°41'0 0.0
2016-Apr-25 13:31N 37°56' E 023°41'0 0.0
2016-Apr-25 12:31N 37°56' E 023°41'0 0.0
2016-Apr-25 11:31N 37°56' E 023°41'0 0.0
2016-Apr-25 10:31N 37°56' E 023°41'0 0.0
2016-Apr-25 09:31N 37°56' E 023°41'0 0.0
2016-Apr-25 08:31N 37°56' E 023°41'0 0.0
2016-Apr-25 07:33N 37°56' E 023°41'0 0.0
2016-Apr-25 06:33N 37°56' E 023°41'0 0.0
2016-Apr-23 23:29N 37°56' E 023°41'0 0.0
2016-Apr-23 22:33N 37°56' E 023°41'0 0.0
2016-Apr-23 21:33N 37°56' E 023°41'0 0.0
2016-Apr-23 20:33N 37°56' E 023°41'0 0.0
2016-Apr-23 19:33N 37°56' E 023°41'0 0.0
2016-Apr-23 18:33N 37°56' E 023°41'0 0.0
2016-Apr-23 17:33N 37°56' E 023°41'  

Dump ship's entire track history